Terminal Aerodrome Forecast
Issued by NWS Cleveland, OH

Home | Current Version | Previous Version | Graphics & Text | Print | Product List | Glossary On
Versions: 1 2 3 4 5 6 7 8 9 10 11 12 13 14 15 16 17 18 19 20 21 22
000
FTUS41 KCLE 251200 AAA
TAFCLE
TAF AMD
KCLE 251226Z 2512/2618 25015G25KT P6SM OVC018
     FM251600 25015G22KT P6SM OVC025
     FM252300 21010KT P6SM OVC025
     FM260500 20010KT P6SM BKN250=

USA.gov is the U.S. government's official web portal to all federal, state and local government web resources and services.